sensor_id;sensor_type;location;lat;lon;timestamp;temperature;humidity
11423;DHT22;5768;51.476;7.210;2023-05-10T00:02:27;14.70;27.80
11423;DHT22;5768;51.476;7.210;2023-05-10T00:07:29;14.60;27.40
11423;DHT22;5768;51.476;7.210;2023-05-10T00:12:31;14.60;27.80
11423;DHT22;5768;51.476;7.210;2023-05-10T00:17:35;14.60;27.60
11423;DHT22;5768;51.476;7.210;2023-05-10T00:22:38;14.70;27.40
11423;DHT22;5768;51.476;7.210;2023-05-10T00:27:40;14.90;27.20
11423;DHT22;5768;51.476;7.210;2023-05-10T00:32:43;14.90;27.40
11423;DHT22;5768;51.476;7.210;2023-05-10T00:37:46;14.70;27.30
11423;DHT22;5768;51.476;7.210;2023-05-10T00:42:48;14.80;26.90
11423;DHT22;5768;51.476;7.210;2023-05-10T00:47:51;14.90;26.80
11423;DHT22;5768;51.476;7.210;2023-05-10T00:52:55;14.90;27.20
11423;DHT22;5768;51.476;7.210;2023-05-10T00:57:58;14.90;27.50
11423;DHT22;5768;51.476;7.210;2023-05-10T01:03:02;14.70;27.40
11423;DHT22;5768;51.476;7.210;2023-05-10T01:08:05;14.70;27.50
11423;DHT22;5768;51.476;7.210;2023-05-10T01:13:09;14.80;27.40
11423;DHT22;5768;51.476;7.210;2023-05-10T01:18:14;14.90;27.40
11423;DHT22;5768;51.476;7.210;2023-05-10T01:23:40;14.90;27.20
11423;DHT22;5768;51.476;7.210;2023-05-10T01:29:28;14.80;27.30
11423;DHT22;5768;51.476;7.210;2023-05-10T01:34:54;14.60;27.30
11423;DHT22;5768;51.476;7.210;2023-05-10T01:40:08;14.60;27.30
11423;DHT22;5768;51.476;7.210;2023-05-10T01:45:27;14.60;27.00
11423;DHT22;5768;51.476;7.210;2023-05-10T01:50:37;14.40;27.60
11423;DHT22;5768;51.476;7.210;2023-05-10T01:55:46;14.40;27.80
11423;DHT22;5768;51.476;7.210;2023-05-10T02:00:52;14.20;27.20
11423;DHT22;5768;51.476;7.210;2023-05-10T02:05:57;14.20;27.90
11423;DHT22;5768;51.476;7.210;2023-05-10T02:11:01;14.20;27.70
11423;DHT22;5768;51.476;7.210;2023-05-10T02:16:06;14.20;27.40
11423;DHT22;5768;51.476;7.210;2023-05-10T02:21:11;14.10;26.80
11423;DHT22;5768;51.476;7.210;2023-05-10T02:26:18;14.20;26.90
11423;DHT22;5768;51.476;7.210;2023-05-10T02:31:26;14.10;27.10
11423;DHT22;5768;51.476;7.210;2023-05-10T02:36:30;14.00;27.00
11423;DHT22;5768;51.476;7.210;2023-05-10T02:41:33;14.00;27.50
11423;DHT22;5768;51.476;7.210;2023-05-10T02:46:35;14.60;27.40
11423;DHT22;5768;51.476;7.210;2023-05-10T02:51:42;14.00;27.10
11423;DHT22;5768;51.476;7.210;2023-05-10T02:56:51;13.40;27.30
11423;DHT22;5768;51.476;7.210;2023-05-10T03:01:58;14.00;26.90
11423;DHT22;5768;51.476;7.210;2023-05-10T03:07:04;14.20;26.80
11423;DHT22;5768;51.476;7.210;2023-05-10T03:12:11;14.40;26.70
11423;DHT22;5768;51.476;7.210;2023-05-10T03:17:23;14.40;26.40
11423;DHT22;5768;51.476;7.210;2023-05-10T03:22:37;14.40;26.50
11423;DHT22;5768;51.476;7.210;2023-05-10T03:27:42;14.40;26.50
11423;DHT22;5768;51.476;7.210;2023-05-10T03:32:45;14.50;26.20
11423;DHT22;5768;51.476;7.210;2023-05-10T03:37:49;14.30;25.70
11423;DHT22;5768;51.476;7.210;2023-05-10T03:42:52;14.30;25.90
11423;DHT22;5768;51.476;7.210;2023-05-10T03:47:54;14.40;25.00
11423;DHT22;5768;51.476;7.210;2023-05-10T03:52:58;14.40;25.10
11423;DHT22;5768;51.476;7.210;2023-05-10T03:58:00;14.40;25.90
11423;DHT22;5768;51.476;7.210;2023-05-10T04:03:02;14.10;25.90
11423;DHT22;5768;51.476;7.210;2023-05-10T04:08:06;14.50;26.10
11423;DHT22;5768;51.476;7.210;2023-05-10T04:13:08;14.60;25.60
11423;DHT22;5768;51.476;7.210;2023-05-10T04:18:11;14.60;25.30
11423;DHT22;5768;51.476;7.210;2023-05-10T04:23:15;14.70;25.40
11423;DHT22;5768;51.476;7.210;2023-05-10T04:28:18;14.60;25.90
11423;DHT22;5768;51.476;7.210;2023-05-10T04:33:20;14.40;26.70
11423;DHT22;5768;51.476;7.210;2023-05-10T04:38:24;14.40;26.50
11423;DHT22;5768;51.476;7.210;2023-05-10T04:43:26;14.20;26.50
11423;DHT22;5768;51.476;7.210;2023-05-10T04:48:28;13.70;26.60
11423;DHT22;5768;51.476;7.210;2023-05-10T04:53:32;14.30;26.80
11423;DHT22;5768;51.476;7.210;2023-05-10T04:58:34;14.30;27.00
11423;DHT22;5768;51.476;7.210;2023-05-10T05:03:36;14.30;26.80
11423;DHT22;5768;51.476;7.210;2023-05-10T05:08:40;14.20;27.30
11423;DHT22;5768;51.476;7.210;2023-05-10T05:13:42;14.30;26.80
11423;DHT22;5768;51.476;7.210;2023-05-10T05:18:44;14.50;26.80
11423;DHT22;5768;51.476;7.210;2023-05-10T05:23:48;14.40;26.80
11423;DHT22;5768;51.476;7.210;2023-05-10T05:28:50;14.30;27.30
11423;DHT22;5768;51.476;7.210;2023-05-10T05:33:55;14.40;27.00
11423;DHT22;5768;51.476;7.210;2023-05-10T05:38:58;14.60;27.50
11423;DHT22;5768;51.476;7.210;2023-05-10T05:44:00;14.90;26.30
11423;DHT22;5768;51.476;7.210;2023-05-10T05:49:03;15.00;26.20
11423;DHT22;5768;51.476;7.210;2023-05-10T05:54:07;14.90;25.90
11423;DHT22;5768;51.476;7.210;2023-05-10T05:59:09;14.80;26.60
11423;DHT22;5768;51.476;7.210;2023-05-10T06:04:11;14.80;26.60
11423;DHT22;5768;51.476;7.210;2023-05-10T06:09:15;14.90;26.50
11423;DHT22;5768;51.476;7.210;2023-05-10T06:14:17;15.10;25.80
11423;DHT22;5768;51.476;7.210;2023-05-10T06:19:22;15.20;26.10
11423;DHT22;5768;51.476;7.210;2023-05-10T06:24:25;15.40;25.20
11423;DHT22;5768;51.476;7.210;2023-05-10T06:29:28;15.50;24.60
11423;DHT22;5768;51.476;7.210;2023-05-10T06:34:30;15.60;24.60
11423;DHT22;5768;51.476;7.210;2023-05-10T06:39:34;15.90;24.10
11423;DHT22;5768;51.476;7.210;2023-05-10T06:44:36;16.00;23.50
11423;DHT22;5768;51.476;7.210;2023-05-10T06:49:38;15.80;24.00
11423;DHT22;5768;51.476;7.210;2023-05-10T06:54:42;16.10;23.20
11423;DHT22;5768;51.476;7.210;2023-05-10T06:59:45;16.40;22.20
11423;DHT22;5768;51.476;7.210;2023-05-10T07:04:47;16.10;21.90
11423;DHT22;5768;51.476;7.210;2023-05-10T07:09:50;16.50;22.30
11423;DHT22;5768;51.476;7.210;2023-05-10T07:14:53;16.80;22.00
11423;DHT22;5768;51.476;7.210;2023-05-10T07:19:55;16.80;20.90
11423;DHT22;5768;51.476;7.210;2023-05-10T07:24:59;16.70;21.00
11423;DHT22;5768;51.476;7.210;2023-05-10T07:30:01;16.70;21.70
11423;DHT22;5768;51.476;7.210;2023-05-10T07:35:04;16.60;21.20
11423;DHT22;5768;51.476;7.210;2023-05-10T07:40:09;16.80;20.60
11423;DHT22;5768;51.476;7.210;2023-05-10T07:45:12;17.40;20.30
11423;DHT22;5768;51.476;7.210;2023-05-10T07:50:14;17.20;19.40
11423;DHT22;5768;51.476;7.210;2023-05-10T07:55:18;17.10;19.80
11423;DHT22;5768;51.476;7.210;2023-05-10T08:00:21;17.10;19.70
11423;DHT22;5768;51.476;7.210;2023-05-10T08:05:23;16.70;20.60
11423;DHT22;5768;51.476;7.210;2023-05-10T08:10:28;16.50;21.00
11423;DHT22;5768;51.476;7.210;2023-05-10T08:15:30;16.70;21.50
11423;DHT22;5768;51.476;7.210;2023-05-10T08:20:32;17.20;21.30
11423;DHT22;5768;51.476;7.210;2023-05-10T08:25:36;16.70;21.30
11423;DHT22;5768;51.476;7.210;2023-05-10T08:30:38;17.30;20.20
11423;DHT22;5768;51.476;7.210;2023-05-10T08:35:40;17.20;20.30
11423;DHT22;5768;51.476;7.210;2023-05-10T08:40:44;17.50;20.40
11423;DHT22;5768;51.476;7.210;2023-05-10T08:45:48;16.90;20.80
11423;DHT22;5768;51.476;7.210;2023-05-10T08:50:53;17.00;21.10
11423;DHT22;5768;51.476;7.210;2023-05-10T08:55:57;17.00;21.10
11423;DHT22;5768;51.476;7.210;2023-05-10T09:01:00;17.40;20.10
11423;DHT22;5768;51.476;7.210;2023-05-10T09:06:03;17.50;19.30
11423;DHT22;5768;51.476;7.210;2023-05-10T09:11:07;17.30;19.60
11423;DHT22;5768;51.476;7.210;2023-05-10T09:16:10;17.20;21.20
11423;DHT22;5768;51.476;7.210;2023-05-10T09:21:13;17.50;20.20
11423;DHT22;5768;51.476;7.210;2023-05-10T09:26:17;17.70;19.50
11423;DHT22;5768;51.476;7.210;2023-05-10T09:31:24;18.00;19.30
11423;DHT22;5768;51.476;7.210;2023-05-10T09:36:54;17.90;19.00
11423;DHT22;5768;51.476;7.210;2023-05-10T09:42:02;17.90;18.60
11423;DHT22;5768;51.476;7.210;2023-05-10T09:47:06;18.00;18.40
11423;DHT22;5768;51.476;7.210;2023-05-10T09:52:08;18.30;18.40
11423;DHT22;5768;51.476;7.210;2023-05-10T09:57:19;17.50;18.80
11423;DHT22;5768;51.476;7.210;2023-05-10T10:02:28;17.80;18.70
11423;DHT22;5768;51.476;7.210;2023-05-10T10:07:31;18.10;18.10
11423;DHT22;5768;51.476;7.210;2023-05-10T10:12:35;18.90;17.40
11423;DHT22;5768;51.476;7.210;2023-05-10T10:17:38;19.80;16.80
11423;DHT22;5768;51.476;7.210;2023-05-10T10:22:40;19.10;17.00
11423;DHT22;5768;51.476;7.210;2023-05-10T10:27:54;19.00;16.90
11423;DHT22;5768;51.476;7.210;2023-05-10T10:33:27;19.40;16.60
11423;DHT22;5768;51.476;7.210;2023-05-10T10:38:54;19.70;16.90
11423;DHT22;5768;51.476;7.210;2023-05-10T10:49:49;18.70;16.60
11423;DHT22;5768;51.476;7.210;2023-05-10T10:54:58;19.10;16.00
11423;DHT22;5768;51.476;7.210;2023-05-10T11:00:22;18.50;16.60
11423;DHT22;5768;51.476;7.210;2023-05-10T11:05:40;18.00;16.60
11423;DHT22;5768;51.476;7.210;2023-05-10T11:10:51;18.20;16.90
11423;DHT22;5768;51.476;7.210;2023-05-10T11:15:56;18.80;16.60
11423;DHT22;5768;51.476;7.210;2023-05-10T11:21:00;18.60;16.90
11423;DHT22;5768;51.476;7.210;2023-05-10T11:26:07;18.10;17.40
11423;DHT22;5768;51.476;7.210;2023-05-10T11:31:14;18.20;16.80
11423;DHT22;5768;51.476;7.210;2023-05-10T11:36:20;18.50;16.90
11423;DHT22;5768;51.476;7.210;2023-05-10T11:41:24;18.30;16.20
11423;DHT22;5768;51.476;7.210;2023-05-10T11:46:29;18.40;16.40
11423;DHT22;5768;51.476;7.210;2023-05-10T11:51:34;18.70;16.70
11423;DHT22;5768;51.476;7.210;2023-05-10T11:56:37;17.80;16.50
11423;DHT22;5768;51.476;7.210;2023-05-10T12:01:42;18.20;17.30
11423;DHT22;5768;51.476;7.210;2023-05-10T12:06:45;18.90;16.60
11423;DHT22;5768;51.476;7.210;2023-05-10T12:11:48;18.10;16.80
11423;DHT22;5768;51.476;7.210;2023-05-10T12:16:51;18.20;16.30
11423;DHT22;5768;51.476;7.210;2023-05-10T12:21:53;18.70;16.80
11423;DHT22;5768;51.476;7.210;2023-05-10T12:26:55;18.80;16.50
11423;DHT22;5768;51.476;7.210;2023-05-10T12:31:59;19.10;16.20
11423;DHT22;5768;51.476;7.210;2023-05-10T12:37:02;20.10;15.50
11423;DHT22;5768;51.476;7.210;2023-05-10T12:42:05;20.20;15.30
11423;DHT22;5768;51.476;7.210;2023-05-10T12:47:08;21.90;14.50
11423;DHT22;5768;51.476;7.210;2023-05-10T12:52:11;22.60;14.20
11423;DHT22;5768;51.476;7.210;2023-05-10T12:57:13;23.00;14.00
11423;DHT22;5768;51.476;7.210;2023-05-10T13:02:17;21.30;14.60
11423;DHT22;5768;51.476;7.210;2023-05-10T13:07:20;21.60;14.40
11423;DHT22;5768;51.476;7.210;2023-05-10T13:12:23;22.10;14.50
11423;DHT22;5768;51.476;7.210;2023-05-10T13:17:26;20.60;15.40
11423;DHT22;5768;51.476;7.210;2023-05-10T13:22:29;21.00;15.30
11423;DHT22;5768;51.476;7.210;2023-05-10T13:27:31;24.00;13.80
11423;DHT22;5768;51.476;7.210;2023-05-10T13:32:35;25.00;13.20
11423;DHT22;5768;51.476;7.210;2023-05-10T13:37:37;27.30;12.30
11423;DHT22;5768;51.476;7.210;2023-05-10T13:42:39;28.90;11.30
11423;DHT22;5768;51.476;7.210;2023-05-10T13:47:43;28.20;10.90
11423;DHT22;5768;51.476;7.210;2023-05-10T13:52:45;27.80;11.00
11423;DHT22;5768;51.476;7.210;2023-05-10T13:57:47;28.90;10.10
11423;DHT22;5768;51.476;7.210;2023-05-10T14:02:51;30.40;10.80
11423;DHT22;5768;51.476;7.210;2023-05-10T14:07:53;29.30;11.20
11423;DHT22;5768;51.476;7.210;2023-05-10T14:17:59;32.90;10.40
11423;DHT22;5768;51.476;7.210;2023-05-10T14:23:01;33.10;10.20
11423;DHT22;5768;51.476;7.210;2023-05-10T14:28:03;33.60;9.50
11423;DHT22;5768;51.476;7.210;2023-05-10T14:33:07;32.80;10.20
11423;DHT22;5768;51.476;7.210;2023-05-10T14:38:09;36.10;9.60
11423;DHT22;5768;51.476;7.210;2023-05-10T14:43:13;35.30;9.60
11423;DHT22;5768;51.476;7.210;2023-05-10T14:48:16;31.80;9.40
11423;DHT22;5768;51.476;7.210;2023-05-10T14:53:18;28.90;10.30
11423;DHT22;5768;51.476;7.210;2023-05-10T14:58:21;27.40;10.80
11423;DHT22;5768;51.476;7.210;2023-05-10T15:03:24;30.50;10.10
11423;DHT22;5768;51.476;7.210;2023-05-10T15:08:26;31.60;9.10
11423;DHT22;5768;51.476;7.210;2023-05-10T15:13:29;32.70;9.60
11423;DHT22;5768;51.476;7.210;2023-05-10T15:18:32;33.40;9.80
11423;DHT22;5768;51.476;7.210;2023-05-10T15:23:35;35.00;9.30
11423;DHT22;5768;51.476;7.210;2023-05-10T15:28:37;31.60;9.80
11423;DHT22;5768;51.476;7.210;2023-05-10T15:38:43;29.80;10.10
11423;DHT22;5768;51.476;7.210;2023-05-10T15:43:46;27.60;10.60
11423;DHT22;5768;51.476;7.210;2023-05-10T15:48:50;26.10;10.40
11423;DHT22;5768;51.476;7.210;2023-05-10T15:53:52;25.40;11.50
11423;DHT22;5768;51.476;7.210;2023-05-10T15:58:55;23.30;11.40
11423;DHT22;5768;51.476;7.210;2023-05-10T16:03:58;23.70;11.20
11423;DHT22;5768;51.476;7.210;2023-05-10T16:09:01;23.20;11.50
11423;DHT22;5768;51.476;7.210;2023-05-10T16:14:03;21.80;11.90
11423;DHT22;5768;51.476;7.210;2023-05-10T16:19:07;21.50;12.40
11423;DHT22;5768;51.476;7.210;2023-05-10T16:24:10;21.30;12.70
11423;DHT22;5768;51.476;7.210;2023-05-10T16:29:12;21.10;13.10
11423;DHT22;5768;51.476;7.210;2023-05-10T16:34:16;21.00;13.00
11423;DHT22;5768;51.476;7.210;2023-05-10T16:39:20;20.90;13.40
11423;DHT22;5768;51.476;7.210;2023-05-10T16:44:22;20.20;13.40
11423;DHT22;5768;51.476;7.210;2023-05-10T16:49:26;19.60;14.90
11423;DHT22;5768;51.476;7.210;2023-05-10T16:54:28;19.50;15.80
11423;DHT22;5768;51.476;7.210;2023-05-10T16:59:30;19.40;15.60
11423;DHT22;5768;51.476;7.210;2023-05-10T17:04:34;18.90;15.90
11423;DHT22;5768;51.476;7.210;2023-05-10T17:09:36;18.30;17.10
11423;DHT22;5768;51.476;7.210;2023-05-10T17:14:39;18.10;17.70
11423;DHT22;5768;51.476;7.210;2023-05-10T17:19:45;17.70;18.50
11423;DHT22;5768;51.476;7.210;2023-05-10T17:24:47;18.10;18.40
11423;DHT22;5768;51.476;7.210;2023-05-10T17:29:53;18.10;19.20
11423;DHT22;5768;51.476;7.210;2023-05-10T17:34:58;17.60;19.10
11423;DHT22;5768;51.476;7.210;2023-05-10T17:40:00;17.40;19.90
11423;DHT22;5768;51.476;7.210;2023-05-10T17:45:06;17.30;19.90
11423;DHT22;5768;51.476;7.210;2023-05-10T17:50:11;17.10;20.10
11423;DHT22;5768;51.476;7.210;2023-05-10T17:55:13;17.20;20.20
11423;DHT22;5768;51.476;7.210;2023-05-10T18:00:16;17.10;20.30
11423;DHT22;5768;51.476;7.210;2023-05-10T18:05:20;17.00;20.60
11423;DHT22;5768;51.476;7.210;2023-05-10T18:10:23;17.00;19.70
11423;DHT22;5768;51.476;7.210;2023-05-10T18:15:25;17.20;19.70
11423;DHT22;5768;51.476;7.210;2023-05-10T18:20:29;17.00;20.30
11423;DHT22;5768;51.476;7.210;2023-05-10T18:25:32;17.40;18.70
11423;DHT22;5768;51.476;7.210;2023-05-10T18:30:34;17.40;18.40
11423;DHT22;5768;51.476;7.210;2023-05-10T18:35:38;17.10;18.60
11423;DHT22;5768;51.476;7.210;2023-05-10T18:40:40;17.00;18.20
11423;DHT22;5768;51.476;7.210;2023-05-10T18:45:43;16.90;18.30
11423;DHT22;5768;51.476;7.210;2023-05-10T18:50:47;16.70;18.40
11423;DHT22;5768;51.476;7.210;2023-05-10T18:55:54;16.60;18.40
11423;DHT22;5768;51.476;7.210;2023-05-10T19:00:58;16.70;18.00
11423;DHT22;5768;51.476;7.210;2023-05-10T19:06:01;16.40;18.00
11423;DHT22;5768;51.476;7.210;2023-05-10T19:11:04;16.10;18.30
11423;DHT22;5768;51.476;7.210;2023-05-10T19:16:10;16.20;18.50
11423;DHT22;5768;51.476;7.210;2023-05-10T19:21:14;16.20;18.70
11423;DHT22;5768;51.476;7.210;2023-05-10T19:26:16;15.70;19.40
11423;DHT22;5768;51.476;7.210;2023-05-10T19:31:19;15.80;19.80
11423;DHT22;5768;51.476;7.210;2023-05-10T19:36:24;15.70;19.90
11423;DHT22;5768;51.476;7.210;2023-05-10T19:41:26;15.70;20.00
11423;DHT22;5768;51.476;7.210;2023-05-10T19:46:28;15.90;20.10
11423;DHT22;5768;51.476;7.210;2023-05-10T19:51:33;15.90;20.00
11423;DHT22;5768;51.476;7.210;2023-05-10T19:56:35;15.80;20.20
11423;DHT22;5768;51.476;7.210;2023-05-10T20:01:37;16.00;20.20
11423;DHT22;5768;51.476;7.210;2023-05-10T20:06:41;16.10;20.30
11423;DHT22;5768;51.476;7.210;2023-05-10T20:11:43;16.30;20.20
11423;DHT22;5768;51.476;7.210;2023-05-10T20:16:45;16.30;20.00
11423;DHT22;5768;51.476;7.210;2023-05-10T20:21:48;16.40;20.10
11423;DHT22;5768;51.476;7.210;2023-05-10T20:26:51;16.30;20.10
11423;DHT22;5768;51.476;7.210;2023-05-10T20:31:53;16.50;19.70
11423;DHT22;5768;51.476;7.210;2023-05-10T20:36:57;16.50;19.40
11423;DHT22;5768;51.476;7.210;2023-05-10T20:41:59;16.50;19.80
11423;DHT22;5768;51.476;7.210;2023-05-10T20:47:01;16.20;19.90
11423;DHT22;5768;51.476;7.210;2023-05-10T20:52:06;16.10;20.40
11423;DHT22;5768;51.476;7.210;2023-05-10T20:57:08;16.10;20.80
11423;DHT22;5768;51.476;7.210;2023-05-10T21:02:12;16.20;20.40
11423;DHT22;5768;51.476;7.210;2023-05-10T21:07:15;16.30;20.10
11423;DHT22;5768;51.476;7.210;2023-05-10T21:12:18;16.20;20.00
11423;DHT22;5768;51.476;7.210;2023-05-10T21:17:23;15.80;20.20
11423;DHT22;5768;51.476;7.210;2023-05-10T21:22:27;15.70;20.70
11423;DHT22;5768;51.476;7.210;2023-05-10T21:27:29;15.80;21.20
11423;DHT22;5768;51.476;7.210;2023-05-10T21:32:31;15.80;21.10
11423;DHT22;5768;51.476;7.210;2023-05-10T21:37:44;15.80;20.60
11423;DHT22;5768;51.476;7.210;2023-05-10T21:42:46;15.70;20.40
11423;DHT22;5768;51.476;7.210;2023-05-10T21:47:48;15.60;20.40
11423;DHT22;5768;51.476;7.210;2023-05-10T21:52:52;15.60;20.50
11423;DHT22;5768;51.476;7.210;2023-05-10T21:57:54;15.40;20.60
11423;DHT22;5768;51.476;7.210;2023-05-10T22:02:57;15.30;21.00
11423;DHT22;5768;51.476;7.210;2023-05-10T22:08:01;15.40;21.50
11423;DHT22;5768;51.476;7.210;2023-05-10T22:13:03;15.60;22.00
11423;DHT22;5768;51.476;7.210;2023-05-10T22:18:06;15.30;21.90
11423;DHT22;5768;51.476;7.210;2023-05-10T22:23:09;15.40;21.60
11423;DHT22;5768;51.476;7.210;2023-05-10T22:28:13;15.60;21.20
11423;DHT22;5768;51.476;7.210;2023-05-10T22:33:15;15.50;20.50
11423;DHT22;5768;51.476;7.210;2023-05-10T22:38:19;15.40;20.20
11423;DHT22;5768;51.476;7.210;2023-05-10T22:43:22;15.30;20.70
11423;DHT22;5768;51.476;7.210;2023-05-10T22:48:24;15.50;21.60
11423;DHT22;5768;51.476;7.210;2023-05-10T22:53:27;15.60;21.00
11423;DHT22;5768;51.476;7.210;2023-05-10T22:58:30;15.70;20.50
11423;DHT22;5768;51.476;7.210;2023-05-10T23:03:32;15.40;20.80
11423;DHT22;5768;51.476;7.210;2023-05-10T23:08:36;15.40;20.80
11423;DHT22;5768;51.476;7.210;2023-05-10T23:13:38;15.20;21.40
11423;DHT22;5768;51.476;7.210;2023-05-10T23:18:40;15.20;21.50
11423;DHT22;5768;51.476;7.210;2023-05-10T23:23:44;15.30;21.60
11423;DHT22;5768;51.476;7.210;2023-05-10T23:28:46;15.30;21.30
11423;DHT22;5768;51.476;7.210;2023-05-10T23:33:48;15.40;21.30
11423;DHT22;5768;51.476;7.210;2023-05-10T23:38:52;15.40;21.30
11423;DHT22;5768;51.476;7.210;2023-05-10T23:43:54;15.40;21.10
11423;DHT22;5768;51.476;7.210;2023-05-10T23:48:57;15.30;21.60
11423;DHT22;5768;51.476;7.210;2023-05-10T23:54:00;15.40;21.50
11423;DHT22;5768;51.476;7.210;2023-05-10T23:59:03;15.40;21.20
